Boone, IA (50099)

11:53 AM CDT on May 25, 2015 (GMT -0500)
Magnolia Rd | | Change Station
CLOSE
Current Station
Personal Weather Station
Location: Boone, IA
Elevation: 1028 ft
Nearby Weather Stations

Elev 1028 ft 41.99 °N, 93.93 °W | Updated 29 seconds ago

Partly Cloudy
Partly Cloudy
72.5 °F
Feels Like 74 °F
N
4.0
Wind Variable Wind from SE
Gusts 8.0 mph

Today
High -- | Low -- °F
--% Chance of Precip.
Yesterday
High -- | Low -- °F
Precip. -- in
5:46 AM 8:38 PM
Waxing Crescent, 50% visible
Pressure 29.78 in
Visibility 10.0 miles
Clouds Few 2100 ft
Scattered Clouds 2600 ft
Heat Index 74 °F
Dew Point 64 °F
Humidity 74%
Rainfall 0.09 in
Snow Depth Not available.
UV 3.7 out of 12
Pollen 1.80 out of 12
Air Quality Not available.
Flu Activity Sporadic
METAR KAMW 251553Z AUTO 22013KT 10SM FEW021 SCT026 22/17 A2980 RMK AO2 SLP084 T02170167

More Conditions Fewer Conditions

Pressure 29.78 in
Visibility 10.0 miles
Clouds Few 2100 ft
Scattered Clouds 2600 ft
Heat Index 74 °F
Dew Point 64 °F
Humidity 74%
Rainfall 0.09 in
Snow Depth Not available.
UV 3.7 out of 12
Pollen 1.80 out of 12
Air Quality Not available.
Flu Activity Sporadic
METAR KAMW 251553Z AUTO 22013KT 10SM FEW021 SCT026 22/17 A2980 RMK AO2 SLP084 T02170167

More Conditions Fewer Conditions

10-Day Weather Forecast

Almanac

Astronomy

May. 25, 2015 Rise Set
Actual Time
Civil Twilight
Nautical Twilight
Astronomical Twilight
Moon
Length of Visible Light
Length of Day
Tomorrow will be .
, % of the Moon is Illuminated

Today's Extremes

State Highs State Lows

Community

WunderPhotos

Upload Photos

1,824,057 photos uploaded!

WunderBlogs® & News

Nearby

Air Quality

  Air Quality AQ Index Pollutant
Not available.

Snow Depth

Station Depth Elevation

Earthquake Activity

City Distance Mag. Time & Date
Minimum magnitude displayed is 2.5.

Coastal Water Temperatures

Place Temperature

Stations

Nearby Weather Stations

Station Location Temp. Windchill Dew Point Humidity Wind Precip. Elev Updated Type